Terminal Aerodrome Forecast
Issued by NWS

Home | Current Version | Previous Version | Text Only | Print | Product List | Glossary On
Versions: 1 2 3 4 5 6 7 8 9 10 11 12 13 14 15 16 17 18 19 20 21 22 23 24 25 26 27 28 29 30 31 32 33 34 35 36 37 38 39 40 41
000
FTUS43 KDLH 251900 AAA
TAFHYR
TAF AMD
KHYR 251900Z 2519/2618 23007KT P6SM VCSH OVC006
      TEMPO 2519/2521 3SM -RA OVC015
     FM252100 VRB05KT 3SM -SHRA BR OVC008
      TEMPO 2521/2524 1SM -SHRA BR OVC015
     FM260000 25006KT 2SM BR VCSH OVC012
     FM260600 19004KT 2SM BR VCSH OVC008
     FM261400 VRB05KT 3SM BR VCSH OVC011=

USA.gov is the U.S. government's official web portal to all federal, state and local government web resources and services.